Rechercher aéroport 
image banner adimage banner ad
image banner ad

SIBK - Sada Siderurgia Ltda Airport

Situé à Várzea Da Palma, Brazil

ICAO - SIBK, IATA -

Données fournies par Airmate  

Information générale

Coordonnées: S31°19'40" W54°8'9"
Élévation : 728 feet MSL.
Variation magnétique : -14° East
Voir autres Aéroports à Rio Grande do Sul

Données opérationnelles

Accessible au public
Heure actuelle UTC:
Heure actuelle locale:
Météo à : SBBG - Comandante Gustavo Kraemer ( 7 km )
METAR: SBBG 301600Z AUTO 09013KT CAVOK 20/17 Q1009 RERA
TAF: TAF SBBG 300900Z 3012/3024 33008KT 9999 SCT035 FEW045TCU TX23/3015Z TN20/3024Z BECMG 3018/3020 07005KT 7000 TSRA SCT030 FEW035CB RMK PED
Voir NOTAMs / SUP AIP / TFR affectant cet aéroport [VIEW]
Fréquences de communication: [VIEW]

Pistes:

Identifiant RWYQFULongueur (ft)Largeur (ft)SurfaceLDA (ft)
11187098GRASS
29187098GRASS

Coordonnées de l'aéroport

Adresse: Várzea Da Palma Brazil

Vue satellite de SIBK